Time;durP1;ratioP1;P1;durP2;ratioP2;P2;SDS_P1;SDS_P2;PMS_P1;PMS_P2;Temp;Humidity;BMP_temperature;BMP_pressure;BME280_temperature;BME280_humidity;BME280_pressure;Samples;Min_cycle;Max_cycle;Signal;HPM_P1;HPM_P2
2023/09/23 00:01:05;;;;;;;10.77;9.80;;;14.80;99.90;;;;;;5056263;28;20409;-72
2023/09/23 00:03:34;;;;;;;10.50;9.60;;;14.80;99.90;;;;;;5056214;28;20449;-72
2023/09/23 00:06:05;;;;;;;11.43;10.63;;;14.80;99.90;;;;;;5054624;28;20949;-72
2023/09/23 00:08:33;;;;;;;11.17;10.27;;;14.80;99.90;;;;;;5056185;28;20419;-72
2023/09/23 00:11:02;;;;;;;11.13;10.33;;;14.80;99.90;;;;;;5054494;28;20442;-72
2023/09/23 00:13:32;;;;;;;11.67;10.80;;;14.80;99.90;;;;;;5055905;28;20884;-72
2023/09/23 00:16:03;;;;;;;11.60;10.80;;;14.80;99.90;;;;;;5056308;28;20428;-72
2023/09/23 00:18:32;;;;;;;12.37;11.37;;;14.80;99.90;;;;;;5056223;28;20783;-72
2023/09/23 00:21:02;;;;;;;12.00;11.00;;;14.80;99.90;;;;;;5055704;28;20445;-72
2023/09/23 00:23:32;;;;;;;13.50;11.30;;;14.80;99.90;;;;;;5055545;28;20430;-72
2023/09/23 00:26:01;;;;;;;12.47;11.47;;;14.80;99.90;;;;;;5055659;28;20472;-72
2023/09/23 00:28:30;;;;;;;13.83;12.77;;;14.80;99.90;;;;;;5055517;28;20906;-72
2023/09/23 00:31:11;;;;;;;14.40;13.10;;;14.80;99.90;;;;;;5054339;28;20793;-71
2023/09/23 00:33:39;;;;;;;13.17;12.10;;;14.80;99.90;;;;;;5055971;28;20458;-72
2023/09/23 00:36:09;;;;;;;14.10;12.87;;;14.80;99.90;;;;;;5055596;28;20492;-71
2023/09/23 00:38:40;;;;;;;15.63;14.23;;;14.80;99.90;;;;;;5055330;28;20434;-72
2023/09/23 00:41:08;;;;;;;15.17;13.97;;;14.70;99.90;;;;;;5053940;28;20438;-72
2023/09/23 00:43:37;;;;;;;13.93;12.83;;;14.80;99.90;;;;;;5056979;28;20461;-72
2023/09/23 00:46:06;;;;;;;14.73;13.53;;;14.70;99.90;;;;;;5056514;28;20437;-72
2023/09/23 00:48:38;;;;;;;13.70;12.50;;;14.70;99.90;;;;;;5053210;28;20509;-72
2023/09/23 00:51:07;;;;;;;15.23;13.80;;;14.70;99.90;;;;;;5054055;28;20539;-72
2023/09/23 00:53:39;;;;;;;14.57;13.37;;;14.70;99.90;;;;;;5055650;28;20454;-72
2023/09/23 00:56:09;;;;;;;15.20;13.80;;;14.70;99.90;;;;;;5055372;28;20415;-72
2023/09/23 00:58:42;;;;;;;14.80;13.60;;;14.60;99.90;;;;;;5053869;28;20444;-72
2023/09/23 01:01:11;;;;;;;16.00;14.80;;;14.60;99.90;;;;;;5053722;28;20438;-72
2023/09/23 01:03:39;;;;;;;15.77;14.57;;;14.60;99.90;;;;;;5054912;28;20438;-72
2023/09/23 01:06:15;;;;;;;17.37;15.87;;;14.60;99.90;;;;;;5055003;28;20964;-72
2023/09/23 01:08:46;;;;;;;16.40;15.00;;;14.60;99.90;;;;;;5053626;28;20438;-72
2023/09/23 01:11:17;;;;;;;15.53;14.33;;;14.50;99.90;;;;;;5055182;28;20415;-72
2023/09/23 01:13:50;;;;;;;16.40;14.90;;;14.50;99.90;;;;;;5053474;28;20488;-72
2023/09/23 01:16:21;;;;;;;15.80;14.50;;;14.50;99.90;;;;;;5062694;28;20458;-72
2023/09/23 01:18:50;;;;;;;16.00;14.70;;;14.40;99.90;;;;;;5063045;28;20469;-72
2023/09/23 01:21:18;;;;;;;15.90;14.60;;;14.40;99.90;;;;;;5056305;28;20409;-72
2023/09/23 01:23:48;;;;;;;16.27;14.97;;;14.40;99.90;;;;;;5058692;28;20474;-72
2023/09/23 01:26:16;;;;;;;14.17;13.03;;;14.40;99.90;;;;;;5057079;28;20438;-72
2023/09/23 01:28:45;;;;;;;15.97;14.67;;;14.40;99.90;;;;;;5054625;28;20460;-72
2023/09/23 01:31:13;;;;;;;15.97;14.47;;;14.40;99.90;;;;;;5055076;28;20449;-72
2023/09/23 01:33:42;;;;;;;16.57;15.00;;;14.40;99.90;;;;;;5055264;28;20450;-72
2023/09/23 01:36:11;;;;;;;15.27;13.73;;;14.40;99.90;;;;;;5053350;28;20442;-72
2023/09/23 01:38:41;;;;;;;15.20;13.80;;;14.40;99.90;;;;;;5053714;28;20454;-72
2023/09/23 01:41:11;;;;;;;15.43;14.13;;;14.40;99.90;;;;;;5055124;28;20430;-72
2023/09/23 01:43:39;;;;;;;15.70;14.40;;;14.40;99.90;;;;;;5053491;28;20557;-72
2023/09/23 01:46:10;;;;;;;15.10;14.00;;;14.40;99.90;;;;;;5053442;28;20441;-72
2023/09/23 01:48:39;;;;;;;14.43;13.27;;;14.40;99.90;;;;;;5054130;28;20468;-72
2023/09/23 01:51:10;;;;;;;16.80;14.93;;;14.40;99.90;;;;;;5054132;28;20885;-72
2023/09/23 01:53:38;;;;;;;14.63;13.37;;;14.40;99.90;;;;;;5053002;28;20450;-72
2023/09/23 01:56:09;;;;;;;14.83;13.33;;;14.40;99.90;;;;;;5053944;28;20444;-72
2023/09/23 01:58:38;;;;;;;14.67;13.47;;;14.40;99.90;;;;;;5052518;28;20917;-72
2023/09/23 02:01:07;;;;;;;14.80;13.47;;;14.30;99.90;;;;;;5052654;28;20445;-72
2023/09/23 02:03:35;;;;;;;14.63;13.43;;;14.40;99.90;;;;;;5052476;28;20529;-72
2023/09/23 02:06:03;;;;;;;15.10;13.90;;;14.30;99.90;;;;;;5052770;28;20476;-72
2023/09/23 02:08:31;;;;;;;14.97;13.77;;;14.40;99.90;;;;;;5053748;28;20851;-72
2023/09/23 02:11:02;;;;;;;14.83;13.63;;;14.30;99.90;;;;;;5053961;28;20938;-72
2023/09/23 02:13:30;;;;;;;15.37;14.07;;;14.30;99.90;;;;;;5053865;28;20453;-72
2023/09/23 02:16:01;;;;;;;15.50;14.13;;;14.30;99.90;;;;;;5052276;28;20466;-72
2023/09/23 02:18:29;;;;;;;14.80;13.50;;;14.30;99.90;;;;;;5052331;28;20445;-72
2023/09/23 02:20:57;;;;;;;15.03;13.77;;;14.30;99.90;;;;;;5052212;28;20521;-72
2023/09/23 02:23:26;;;;;;;15.10;13.90;;;14.30;99.90;;;;;;5054006;28;20477;-72
2023/09/23 02:25:54;;;;;;;15.17;13.87;;;14.30;99.90;;;;;;5053428;28;20430;-72
2023/09/23 02:28:22;;;;;;;13.93;12.73;;;14.20;99.90;;;;;;5052174;28;20544;-72
2023/09/23 02:30:53;;;;;;;16.40;15.00;;;14.20;99.90;;;;;;5052089;28;20449;-72
2023/09/23 02:33:24;;;;;;;14.47;13.07;;;14.20;99.90;;;;;;5054257;28;20524;-72
2023/09/23 02:35:52;;;;;;;14.27;13.07;;;14.20;99.90;;;;;;5053204;28;20454;-72
2023/09/23 02:38:22;;;;;;;14.73;13.60;;;14.20;99.90;;;;;;5052111;28;20543;-72
2023/09/23 02:40:50;;;;;;;14.80;13.40;;;14.10;99.90;;;;;;5051939;28;20442;-72
2023/09/23 02:43:19;;;;;;;15.27;13.90;;;14.10;99.90;;;;;;5051936;28;20503;-72
2023/09/23 02:45:49;;;;;;;15.33;14.03;;;14.10;99.90;;;;;;5051817;28;20474;-72
2023/09/23 02:48:17;;;;;;;15.60;14.20;;;14.10;99.90;;;;;;5051862;28;20430;-72
2023/09/23 02:50:47;;;;;;;14.50;13.20;;;14.10;99.90;;;;;;5052952;28;20449;-72
2023/09/23 02:53:15;;;;;;;14.57;13.27;;;14.10;99.90;;;;;;5051829;28;20533;-72
2023/09/23 02:55:51;;;;;;;15.00;13.80;;;14.10;99.90;;;;;;5051624;28;20545;-72
2023/09/23 02:58:21;;;;;;;13.20;12.20;;;14.10;99.90;;;;;;5051810;28;20466;-72
2023/09/23 03:00:57;;;;;;;13.80;12.50;;;14.10;99.90;;;;;;5053095;28;20438;-72
2023/09/23 03:03:27;;;;;;;13.70;12.60;;;14.10;99.90;;;;;;5052011;28;20452;-72
2023/09/23 03:06:02;;;;;;;13.80;12.60;;;14.00;99.90;;;;;;5051721;28;20443;-71
2023/09/23 03:08:31;;;;;;;14.30;13.10;;;14.00;99.90;;;;;;5052993;28;20418;-72
2023/09/23 03:11:02;;;;;;;12.93;11.93;;;14.00;99.90;;;;;;5053164;28;20438;-72
2023/09/23 03:13:31;;;;;;;15.93;14.47;;;14.00;99.90;;;;;;5056963;28;20417;-72
2023/09/23 03:16:08;;;;;;;15.30;13.90;;;14.00;99.90;;;;;;5056969;28;20890;-72
2023/09/23 03:18:42;;;;;;;13.60;12.40;;;14.00;99.90;;;;;;5055620;28;20441;-72
2023/09/23 03:21:12;;;;;;;14.27;12.87;;;14.00;99.90;;;;;;5055587;28;20448;-72
2023/09/23 03:23:41;;;;;;;14.73;13.53;;;14.00;99.90;;;;;;5055472;28;20932;-72
2023/09/23 03:26:11;;;;;;;14.33;13.03;;;14.00;99.90;;;;;;5055502;28;20445;-71
2023/09/23 03:28:40;;;;;;;15.13;13.80;;;14.00;99.90;;;;;;5055421;28;20448;-72
2023/09/23 03:31:09;;;;;;;16.30;14.90;;;14.00;99.90;;;;;;5057180;28;20449;-72
2023/09/23 03:33:44;;;;;;;16.23;14.63;;;14.00;99.90;;;;;;5055356;28;20438;-72
2023/09/23 03:36:20;;;;;;;14.90;13.70;;;14.00;99.90;;;;;;5055224;28;20458;-72
2023/09/23 03:38:49;;;;;;;15.33;13.93;;;14.00;99.90;;;;;;5056442;28;20831;-72
2023/09/23 03:41:17;;;;;;;15.83;14.53;;;13.90;99.90;;;;;;5055204;28;20442;-72
2023/09/23 03:43:45;;;;;;;17.33;15.80;;;13.90;99.90;;;;;;5055071;28;20445;-72
2023/09/23 03:46:14;;;;;;;16.87;15.37;;;13.90;99.90;;;;;;5055101;28;20969;-72
2023/09/23 03:48:43;;;;;;;16.90;15.50;;;14.00;99.90;;;;;;5055117;28;20964;-71
2023/09/23 03:51:14;;;;;;;16.97;15.57;;;13.90;99.90;;;;;;5056364;28;20955;-72
2023/09/23 03:53:45;;;;;;;17.87;16.30;;;14.00;99.90;;;;;;5056577;28;20864;-72
2023/09/23 03:56:13;;;;;;;16.83;15.33;;;13.90;99.90;;;;;;5057091;28;20480;-72
2023/09/23 03:58:43;;;;;;;17.53;15.93;;;13.90;99.90;;;;;;5054999;28;20499;-72
2023/09/23 04:01:13;;;;;;;17.13;15.63;;;13.90;99.90;;;;;;5054916;28;20901;-71
2023/09/23 04:03:42;;;;;;;17.30;15.90;;;13.90;99.90;;;;;;5055437;28;20488;-71
2023/09/23 04:06:11;;;;;;;16.57;15.07;;;13.90;99.90;;;;;;5054777;28;20469;-71
2023/09/23 04:08:40;;;;;;;18.80;17.00;;;13.90;99.90;;;;;;5054714;28;20442;-71
2023/09/23 04:11:10;;;;;;;15.33;13.93;;;13.90;99.90;;;;;;5056513;28;20517;-72
2023/09/23 04:13:38;;;;;;;14.40;13.10;;;13.90;99.90;;;;;;5054505;28;20473;-71
2023/09/23 04:16:06;;;;;;;12.57;11.57;;;13.90;99.90;;;;;;5055693;28;20561;-71
2023/09/23 04:18:34;;;;;;;10.97;9.97;;;13.80;99.90;;;;;;5054519;28;20533;-72
2023/09/23 04:21:03;;;;;;;9.43;8.63;;;13.80;99.90;;;;;;5056047;28;20442;-71
2023/09/23 04:23:31;;;;;;;9.57;8.77;;;13.80;99.90;;;;;;5055547;28;20444;-72
2023/09/23 04:25:59;;;;;;;9.17;8.37;;;13.80;99.90;;;;;;5055584;28;20871;-71
2023/09/23 04:28:30;;;;;;;8.87;8.07;;;13.70;99.90;;;;;;5055529;28;20434;-72
2023/09/23 04:30:58;;;;;;;8.63;7.80;;;13.70;99.90;;;;;;5054300;28;20545;-71
2023/09/23 04:33:27;;;;;;;8.10;7.40;;;13.60;99.90;;;;;;5055527;28;20438;-71
2023/09/23 04:35:58;;;;;;;8.53;7.80;;;13.70;99.90;;;;;;5055309;28;20846;-72
2023/09/23 04:38:26;;;;;;;7.70;7.00;;;13.60;99.90;;;;;;5055332;28;20432;-71
2023/09/23 04:40:55;;;;;;;9.40;8.60;;;13.60;99.90;;;;;;5055286;28;20448;-71
2023/09/23 04:43:25;;;;;;;8.40;7.70;;;13.60;99.90;;;;;;5055414;28;20549;-71
2023/09/23 04:45:55;;;;;;;9.10;8.30;;;13.60;99.90;;;;;;5055759;28;20505;-71
2023/09/23 04:48:24;;;;;;;7.47;6.77;;;13.60;99.90;;;;;;5055270;28;20961;-71
2023/09/23 04:50:55;;;;;;;9.03;8.23;;;13.50;99.90;;;;;;5055145;28;20528;-71
2023/09/23 04:53:24;;;;;;;7.93;7.33;;;13.50;99.90;;;;;;5053999;28;20466;-71
2023/09/23 04:55:52;;;;;;;9.73;8.83;;;13.50;99.90;;;;;;5055019;28;20469;-71
2023/09/23 04:58:20;;;;;;;9.00;8.10;;;13.50;99.90;;;;;;5055107;28;20434;-72
2023/09/23 05:00:48;;;;;;;8.70;7.90;;;13.50;99.90;;;;;;5055069;28;20473;-71
2023/09/23 05:03:19;;;;;;;9.00;8.30;;;13.50;99.90;;;;;;5055423;28;20434;-71
2023/09/23 05:05:47;;;;;;;9.30;8.50;;;13.50;99.90;;;;;;5053798;28;20528;-71
2023/09/23 05:08:16;;;;;;;8.73;7.77;;;13.50;99.90;;;;;;5054933;28;20522;-72
2023/09/23 05:10:45;;;;;;;8.17;7.50;;;13.50;99.90;;;;;;5055040;28;20445;-72
2023/09/23 05:13:17;;;;;;;9.57;8.77;;;13.50;99.90;;;;;;5053938;28;20442;-72
2023/09/23 05:15:45;;;;;;;8.70;7.87;;;13.50;99.90;;;;;;5054995;28;20968;-71
2023/09/23 05:18:13;;;;;;;8.47;7.67;;;13.50;99.90;;;;;;5055443;28;20438;-71
2023/09/23 05:20:42;;;;;;;8.87;8.07;;;13.50;99.90;;;;;;5054972;28;20465;-71
2023/09/23 05:23:10;;;;;;;8.80;7.90;;;13.50;99.90;;;;;;5053439;28;20535;-72
2023/09/23 05:25:41;;;;;;;8.63;7.90;;;13.50;99.90;;;;;;5054783;28;20822;-72
2023/09/23 05:28:10;;;;;;;6.67;6.07;;;13.50;99.90;;;;;;5054923;28;20480;-72
2023/09/23 05:30:38;;;;;;;6.87;6.27;;;13.50;99.90;;;;;;5054632;28;20827;-72
2023/09/23 05:33:06;;;;;;;8.00;7.30;;;13.50;99.90;;;;;;5054078;28;20866;-72
2023/09/23 05:35:35;;;;;;;7.83;6.70;;;13.50;99.90;;;;;;5054224;28;20486;-72
2023/09/23 05:38:05;;;;;;;7.33;6.63;;;13.50;99.90;;;;;;5053743;28;20466;-71
2023/09/23 05:40:36;;;;;;;6.83;6.23;;;13.50;99.90;;;;;;5053811;28;20433;-72
2023/09/23 05:43:06;;;;;;;8.23;7.53;;;13.50;99.90;;;;;;5054343;28;20879;-72
2023/09/23 05:45:37;;;;;;;6.53;5.93;;;13.50;99.90;;;;;;5052769;28;21004;-72
2023/09/23 05:48:06;;;;;;;7.00;6.40;;;13.50;99.90;;;;;;5054080;28;20472;-72
2023/09/23 05:50:35;;;;;;;6.83;6.23;;;13.60;99.90;;;;;;5052690;28;20442;-72
2023/09/23 05:53:05;;;;;;;6.40;5.90;;;13.50;99.90;;;;;;5053962;28;20446;-72
2023/09/23 05:55:33;;;;;;;6.27;5.67;;;13.50;99.90;;;;;;5052533;28;20465;-72
2023/09/23 05:58:01;;;;;;;6.80;6.20;;;13.50;99.90;;;;;;5053782;28;20465;-72
2023/09/23 06:00:30;;;;;;;6.00;5.43;;;13.50;99.90;;;;;;5052638;28;20442;-72
2023/09/23 06:02:58;;;;;;;7.27;6.57;;;13.50;99.90;;;;;;5052439;28;21131;-72
2023/09/23 06:05:27;;;;;;;6.23;5.63;;;13.50;99.90;;;;;;5053686;28;20991;-71
2023/09/23 06:07:56;;;;;;;5.77;5.27;;;13.50;99.90;;;;;;5053622;28;20442;-72
2023/09/23 06:10:25;;;;;;;7.80;6.20;;;13.50;99.90;;;;;;5053910;28;20452;-72
2023/09/23 06:12:54;;;;;;;7.07;6.47;;;13.50;99.90;;;;;;5052352;28;20481;-72
2023/09/23 06:15:22;;;;;;;6.90;6.30;;;13.50;99.90;;;;;;5053562;28;20552;-72
2023/09/23 06:17:50;;;;;;;6.10;5.60;;;13.50;99.90;;;;;;5053731;28;20870;-72
2023/09/23 06:20:19;;;;;;;6.90;6.30;;;13.50;99.90;;;;;;5053545;28;20941;-72
2023/09/23 06:22:47;;;;;;;7.60;6.90;;;13.50;99.90;;;;;;5054041;28;20443;-72
2023/09/23 06:25:17;;;;;;;8.13;7.43;;;13.50;99.90;;;;;;5053324;28;20980;-72
2023/09/23 06:27:48;;;;;;;9.07;8.37;;;13.50;99.90;;;;;;5053385;28;20437;-72
2023/09/23 06:30:17;;;;;;;9.20;8.37;;;13.50;99.90;;;;;;5052158;28;20465;-71
2023/09/23 06:32:47;;;;;;;9.27;8.37;;;13.50;99.90;;;;;;5053292;28;20449;-72
2023/09/23 06:35:15;;;;;;;10.30;9.40;;;13.50;99.90;;;;;;5053273;28;20464;-71
2023/09/23 06:37:44;;;;;;;10.23;9.20;;;13.50;99.90;;;;;;5053435;28;20877;-72
2023/09/23 06:40:12;;;;;;;9.57;8.77;;;13.50;99.90;;;;;;5053120;28;20434;-71
2023/09/23 06:42:40;;;;;;;11.10;10.10;;;13.50;99.90;;;;;;5052999;28;20968;-72
2023/09/23 06:45:12;;;;;;;11.13;10.20;;;13.50;99.90;;;;;;5052457;28;20461;-72
2023/09/23 06:47:40;;;;;;;12.47;11.37;;;13.50;99.90;;;;;;5051973;28;20449;-72
2023/09/23 06:50:09;;;;;;;11.70;10.63;;;13.50;99.90;;;;;;5053706;28;20469;-71
2023/09/23 06:52:37;;;;;;;11.33;10.27;;;13.50;99.90;;;;;;5051875;28;20450;-72
2023/09/23 06:55:06;;;;;;;14.47;12.33;;;13.50;99.90;;;;;;5051837;28;20462;-72
2023/09/23 06:57:35;;;;;;;13.30;11.97;;;13.50;99.90;;;;;;5054786;28;20553;-72
2023/09/23 07:00:07;;;;;;;13.37;12.07;;;13.50;99.90;;;;;;5057759;28;20451;-72
2023/09/23 07:02:36;;;;;;;12.47;11.33;;;13.50;99.90;;;;;;5057072;28;20517;-71
2023/09/23 07:05:05;;;;;;;13.90;11.67;;;13.50;99.90;;;;;;5054377;28;20460;-71
2023/09/23 07:07:33;;;;;;;12.83;11.60;;;13.50;99.90;;;;;;5053916;28;20937;-71
2023/09/23 07:10:02;;;;;;;13.60;12.40;;;13.50;99.90;;;;;;5052397;28;20507;-72
2023/09/23 07:12:32;;;;;;;12.50;11.40;;;13.50;99.90;;;;;;5051841;28;20442;-72
2023/09/23 07:15:00;;;;;;;12.77;11.57;;;13.50;99.90;;;;;;5053402;28;20486;-73
2023/09/23 07:17:28;;;;;;;12.57;11.27;;;13.60;99.90;;;;;;5052490;28;20470;-72
2023/09/23 07:19:58;;;;;;;13.40;12.20;;;13.50;99.90;;;;;;5051647;28;20442;-71
2023/09/23 07:22:26;;;;;;;14.33;12.93;;;13.60;99.90;;;;;;5053330;28;20873;-72
2023/09/23 07:24:54;;;;;;;14.77;13.37;;;13.60;99.90;;;;;;5053204;28;20489;-72
2023/09/23 07:27:24;;;;;;;14.17;12.77;;;13.60;99.90;;;;;;5051673;28;20434;-72
2023/09/23 07:29:52;;;;;;;15.70;14.10;;;13.60;99.90;;;;;;5052832;28;20499;-72
2023/09/23 07:32:20;;;;;;;16.20;14.70;;;13.70;99.90;;;;;;5053021;28;20434;-72
2023/09/23 07:34:48;;;;;;;15.93;14.47;;;13.70;99.90;;;;;;5052910;28;20460;-72
2023/09/23 07:37:18;;;;;;;17.47;15.70;;;13.70;99.90;;;;;;5052834;28;20505;-72
2023/09/23 07:39:46;;;;;;;15.40;13.93;;;13.70;99.90;;;;;;5053018;28;20408;-72
2023/09/23 07:42:14;;;;;;;16.67;14.97;;;13.70;99.90;;;;;;5051214;28;20933;-73
2023/09/23 07:44:42;;;;;;;16.70;15.20;;;13.70;99.90;;;;;;5051423;28;20461;-72
2023/09/23 07:47:11;;;;;;;16.27;14.57;;;13.70;99.90;;;;;;5051341;28;20585;-72
2023/09/23 07:49:39;;;;;;;18.30;16.40;;;13.80;99.90;;;;;;5051351;28;20450;-72
2023/09/23 07:52:07;;;;;;;16.53;15.03;;;13.80;99.90;;;;;;5052759;28;20774;-72
2023/09/23 07:54:38;;;;;;;18.07;16.37;;;13.80;99.90;;;;;;5052803;28;20464;-72
2023/09/23 07:57:06;;;;;;;16.60;15.10;;;13.90;99.90;;;;;;5054447;28;20528;-72
2023/09/23 07:59:34;;;;;;;17.17;15.60;;;14.00;99.90;;;;;;5056698;28;20437;-71
2023/09/23 08:02:02;;;;;;;15.90;14.40;;;14.00;99.90;;;;;;5057005;28;20437;-72
2023/09/23 08:04:30;;;;;;;19.00;17.20;;;14.00;99.90;;;;;;5055066;28;20519;-72
2023/09/23 08:06:58;;;;;;;17.73;16.03;;;14.10;99.90;;;;;;5056094;28;20453;-71
2023/09/23 08:09:27;;;;;;;19.30;17.50;;;14.10;99.90;;;;;;5054898;28;20430;-72
2023/09/23 08:11:56;;;;;;;20.83;18.73;;;14.10;99.90;;;;;;5054730;28;20445;-72
2023/09/23 08:14:25;;;;;;;20.43;18.53;;;14.20;99.90;;;;;;5055005;28;20464;-72
2023/09/23 08:16:53;;;;;;;20.33;18.53;;;14.20;99.90;;;;;;5054712;28;20442;-72
2023/09/23 08:19:21;;;;;;;19.30;17.60;;;14.20;99.90;;;;;;5056158;28;20470;-72
2023/09/23 08:21:49;;;;;;;18.47;16.67;;;14.30;99.90;;;;;;5055892;28;20521;-72
2023/09/23 08:24:17;;;;;;;20.57;18.77;;;14.30;99.90;;;;;;5054725;28;20537;-72
2023/09/23 08:26:46;;;;;;;21.80;19.80;;;14.30;99.90;;;;;;5054481;28;21014;-72
2023/09/23 08:29:15;;;;;;;20.93;19.03;;;14.40;99.90;;;;;;5055723;28;21021;-72
2023/09/23 08:31:43;;;;;;;22.90;20.70;;;14.40;99.90;;;;;;5055652;28;20431;-72
2023/09/23 08:34:12;;;;;;;24.57;22.17;;;14.50;99.90;;;;;;5055655;28;20466;-72
2023/09/23 08:36:40;;;;;;;22.77;20.67;;;14.50;99.90;;;;;;5054569;28;20446;-72
2023/09/23 08:39:09;;;;;;;23.30;21.20;;;14.60;99.90;;;;;;5055883;28;20564;-72
2023/09/23 08:41:38;;;;;;;23.37;21.17;;;14.60;99.90;;;;;;5054233;28;20450;-73
2023/09/23 08:44:07;;;;;;;22.37;20.23;;;14.50;99.90;;;;;;5055531;28;20509;-72
2023/09/23 08:46:36;;;;;;;22.70;20.53;;;14.50;99.90;;;;;;5055525;28;20951;-72
2023/09/23 08:49:06;;;;;;;21.90;19.90;;;14.50;99.90;;;;;;5055669;28;20434;-72
2023/09/23 08:51:35;;;;;;;18.93;17.30;;;14.50;99.90;;;;;;5054138;28;20529;-72
2023/09/23 08:54:04;;;;;;;19.63;17.73;;;14.60;99.90;;;;;;5055213;28;20458;-72
2023/09/23 08:56:34;;;;;;;20.37;18.57;;;14.60;99.90;;;;;;5054191;28;20435;-72
2023/09/23 08:59:03;;;;;;;17.20;15.70;;;14.70;99.90;;;;;;5053983;28;20497;-73
2023/09/23 09:01:42;;;;;;;16.27;14.77;;;14.70;99.90;;;;;;5055187;28;20940;-72
2023/09/23 09:04:13;;;;;;;17.10;15.50;;;14.70;99.90;;;;;;5055095;28;20573;-72
2023/09/23 09:06:49;;;;;;;17.83;15.97;;;14.80;99.90;;;;;;5055163;28;20987;-73
2023/09/23 09:09:18;;;;;;;16.67;15.17;;;14.80;99.90;;;;;;5054710;28;20434;-73
2023/09/23 09:11:47;;;;;;;16.90;15.30;;;14.90;99.90;;;;;;5055752;28;20437;-73
2023/09/23 09:14:16;;;;;;;16.20;14.80;;;15.00;99.90;;;;;;5054692;28;20458;-73
2023/09/23 09:16:46;;;;;;;17.20;15.57;;;15.00;99.90;;;;;;5057057;28;20473;-73
2023/09/23 09:19:14;;;;;;;15.80;14.40;;;15.10;99.90;;;;;;5057554;28;20516;-73
2023/09/23 09:21:42;;;;;;;16.87;15.17;;;15.20;99.90;;;;;;5055097;28;20438;-73
2023/09/23 09:24:10;;;;;;;15.53;14.00;;;15.20;99.90;;;;;;5055224;28;20466;-73
2023/09/23 09:26:39;;;;;;;16.00;14.40;;;15.30;99.90;;;;;;5055613;28;20448;-73
2023/09/23 09:29:07;;;;;;;15.10;13.70;;;15.30;99.90;;;;;;5055798;28;20500;-73
2023/09/23 09:31:38;;;;;;;15.70;14.23;;;15.40;99.90;;;;;;5056355;28;20441;-73
2023/09/23 09:34:11;;;;;;;16.50;14.90;;;15.40;99.90;;;;;;5055832;28;20462;-73
2023/09/23 09:36:40;;;;;;;16.47;14.97;;;15.50;99.90;;;;;;5055504;28;20430;-73
2023/09/23 09:39:10;;;;;;;14.63;13.23;;;15.50;99.90;;;;;;5054096;28;20470;-73
2023/09/23 09:41:46;;;;;;;15.47;13.93;;;15.50;99.90;;;;;;5055191;28;20913;-73
2023/09/23 09:44:15;;;;;;;14.30;13.00;;;15.50;99.90;;;;;;5054009;28;20505;-73
2023/09/23 09:46:45;;;;;;;13.10;12.00;;;15.50;99.90;;;;;;5055211;28;20488;-73
2023/09/23 09:49:16;;;;;;;13.10;11.90;;;15.50;99.90;;;;;;5054308;28;20465;-73
2023/09/23 09:51:48;;;;;;;13.77;12.47;;;15.50;99.90;;;;;;5053702;28;20501;-73
2023/09/23 09:54:18;;;;;;;13.83;12.50;;;15.50;99.90;;;;;;5055498;28;20462;-73
2023/09/23 09:56:50;;;;;;;12.03;11.03;;;15.50;99.90;;;;;;5055157;28;20921;-73
2023/09/23 09:59:32;;;;;;;12.83;11.70;;;15.50;99.90;;;;;;5055081;28;20478;-73
2023/09/23 10:02:03;;;;;;;13.07;11.87;;;15.50;99.90;;;;;;5053655;28;20845;-73
2023/09/23 10:04:34;;;;;;;12.97;11.77;;;15.50;99.90;;;;;;5054808;28;20479;-73
2023/09/23 10:07:07;;;;;;;12.90;11.70;;;15.50;99.90;;;;;;5055646;28;20556;-73
2023/09/23 10:09:38;;;;;;;12.40;11.20;;;15.50;99.90;;;;;;5061255;28;20472;-73
2023/09/23 10:12:08;;;;;;;12.53;11.33;;;15.50;99.90;;;;;;5057776;28;20945;-73
2023/09/23 10:14:37;;;;;;;11.80;10.70;;;15.50;99.90;;;;;;5055091;28;20880;-73
2023/09/23 10:17:09;;;;;;;11.47;10.37;;;15.50;99.90;;;;;;5054579;28;20420;-73
2023/09/23 10:19:41;;;;;;;12.00;10.80;;;15.50;99.90;;;;;;5053769;28;20512;-73
2023/09/23 10:22:17;;;;;;;13.07;11.90;;;15.50;99.90;;;;;;5053537;28;20492;-73
2023/09/23 10:24:46;;;;;;;12.80;11.50;;;15.60;99.90;;;;;;5053394;28;20484;-73
2023/09/23 10:27:24;;;;;;;11.10;10.00;;;15.50;99.90;;;;;;5054362;28;20438;-73
2023/09/23 10:29:52;;;;;;;11.40;10.30;;;15.50;99.90;;;;;;5053596;28;20513;-73
2023/09/23 10:32:21;;;;;;;10.90;9.90;;;15.50;99.90;;;;;;5053600;28;20426;-73
2023/09/23 10:34:55;;;;;;;11.37;10.20;;;15.50;99.90;;;;;;5052223;28;20562;-74
2023/09/23 10:37:32;;;;;;;10.80;9.90;;;15.50;99.90;;;;;;5052155;28;20405;-73
2023/09/23 10:40:12;;;;;;;11.07;10.07;;;15.60;99.90;;;;;;5053562;28;20432;-74
2023/09/23 10:42:41;;;;;;;10.90;10.00;;;15.60;99.90;;;;;;5053529;28;20453;-74
2023/09/23 10:45:10;;;;;;;12.40;10.87;;;15.60;99.90;;;;;;5053397;28;20522;-74
2023/09/23 10:47:38;;;;;;;11.23;10.00;;;15.70;99.90;;;;;;5053226;28;20460;-74
2023/09/23 10:50:08;;;;;;;11.27;10.20;;;15.70;99.90;;;;;;5053198;28;20411;-74
2023/09/23 10:52:38;;;;;;;10.60;9.60;;;15.70;99.90;;;;;;5053321;28;20462;-73
2023/09/23 10:55:09;;;;;;;10.97;9.97;;;15.80;99.90;;;;;;5053240;28;20842;-73
2023/09/23 10:57:38;;;;;;;10.73;9.63;;;15.80;99.90;;;;;;5053464;28;20889;-74
2023/09/23 11:00:16;;;;;;;9.53;8.73;;;15.80;99.90;;;;;;5053042;28;20502;-73
2023/09/23 11:02:50;;;;;;;10.07;9.20;;;15.90;99.90;;;;;;5053241;28;20487;-73
2023/09/23 11:05:22;;;;;;;9.20;8.40;;;15.90;99.90;;;;;;5053290;28;20457;-73
2023/09/23 11:07:54;;;;;;;8.20;7.50;;;16.00;99.90;;;;;;5053386;28;20740;-73
2023/09/23 11:10:23;;;;;;;7.80;6.67;;;16.10;99.90;;;;;;5051876;28;20434;-74
2023/09/23 11:12:54;;;;;;;8.93;8.03;;;16.10;99.90;;;;;;5051804;28;20503;-74
2023/09/23 11:15:22;;;;;;;7.37;6.67;;;16.10;99.90;;;;;;5053003;28;20458;-74
2023/09/23 11:17:55;;;;;;;7.03;6.30;;;16.10;99.90;;;;;;5051712;28;20516;-74
2023/09/23 11:20:29;;;;;;;7.40;6.20;;;16.10;99.90;;;;;;5051645;28;20458;-74
2023/09/23 11:23:00;;;;;;;6.90;6.30;;;16.10;99.90;;;;;;5053106;28;20404;-74
2023/09/23 11:25:28;;;;;;;6.57;5.97;;;16.10;99.90;;;;;;5052773;28;20461;-74
2023/09/23 11:27:59;;;;;;;7.30;6.70;;;16.20;99.90;;;;;;5053142;28;20412;-74
2023/09/23 11:30:28;;;;;;;6.93;6.27;;;16.20;99.90;;;;;;5052737;28;20431;-74
2023/09/23 11:32:56;;;;;;;9.50;6.50;;;16.30;99.90;;;;;;5055893;28;20416;-74
2023/09/23 11:35:24;;;;;;;7.17;6.47;;;16.30;99.90;;;;;;5056695;28;20454;-74
2023/09/23 11:37:55;;;;;;;5.90;5.40;;;16.30;99.90;;;;;;5055648;28;20446;-74
2023/09/23 11:40:24;;;;;;;8.23;6.20;;;16.40;99.90;;;;;;5056513;28;20849;-74
2023/09/23 11:42:53;;;;;;;6.70;6.00;;;16.50;99.90;;;;;;5056735;28;20459;-74
2023/09/23 11:45:21;;;;;;;7.03;6.40;;;16.50;99.90;;;;;;5056594;28;20891;-74
2023/09/23 11:47:49;;;;;;;6.37;5.77;;;16.60;99.90;;;;;;5056695;28;20900;-74
2023/09/23 11:50:18;;;;;;;7.20;6.50;;;16.60;99.90;;;;;;5056459;28;20443;-74
2023/09/23 11:52:46;;;;;;;7.10;5.73;;;16.60;99.90;;;;;;5055078;28;20419;-74
2023/09/23 11:55:16;;;;;;;6.00;5.03;;;16.60;99.90;;;;;;5056264;28;20436;-73
2023/09/23 11:57:44;;;;;;;5.50;5.03;;;16.60;99.90;;;;;;5055000;28;20413;-74
2023/09/23 12:00:15;;;;;;;5.53;5.03;;;16.70;99.90;;;;;;5056301;28;20449;-74
2023/09/23 12:02:43;;;;;;;5.67;4.50;;;16.60;99.90;;;;;;5056112;28;20922;-74
2023/09/23 12:05:12;;;;;;;5.70;5.20;;;16.70;99.90;;;;;;5054995;28;20440;-74
2023/09/23 12:07:41;;;;;;;7.63;5.67;;;16.70;99.90;;;;;;5054897;28;20536;-74
2023/09/23 12:10:13;;;;;;;7.40;5.53;;;16.70;99.90;;;;;;5054763;28;20444;-73
2023/09/23 12:12:43;;;;;;;6.30;5.30;;;16.70;99.90;;;;;;5054786;28;20444;-74
2023/09/23 12:15:11;;;;;;;6.50;5.33;;;16.70;99.90;;;;;;5055976;28;21067;-74
2023/09/23 12:17:40;;;;;;;5.20;4.80;;;16.70;99.90;;;;;;5055768;28;20965;-74
2023/09/23 12:20:11;;;;;;;5.67;5.13;;;16.70;99.90;;;;;;5055810;28;20487;-74
2023/09/23 12:22:41;;;;;;;5.50;5.00;;;16.70;99.90;;;;;;5055805;28;20418;-74
2023/09/23 12:25:10;;;;;;;5.80;5.20;;;16.80;99.90;;;;;;5054377;28;20852;-74
2023/09/23 12:27:38;;;;;;;5.70;5.20;;;16.80;99.90;;;;;;5055541;28;20969;-74
2023/09/23 12:30:09;;;;;;;5.33;4.93;;;16.80;99.90;;;;;;5055568;28;20538;-74
2023/09/23 12:32:37;;;;;;;5.70;5.30;;;16.80;99.90;;;;;;5055997;28;20506;-74
2023/09/23 12:35:06;;;;;;;5.40;4.90;;;16.80;99.90;;;;;;5055636;28;20440;-74
2023/09/23 12:37:34;;;;;;;5.00;4.50;;;16.90;99.90;;;;;;5054366;28;20961;-74
2023/09/23 12:40:06;;;;;;;5.50;5.00;;;16.90;99.90;;;;;;5056326;28;20451;-74
2023/09/23 12:42:34;;;;;;;6.57;5.83;;;16.90;99.90;;;;;;5053700;28;20508;-74
2023/09/23 12:45:03;;;;;;;5.10;4.50;;;17.00;99.90;;;;;;5053365;28;20437;-74